Terminal Aerodrome Forecast
Issued by NWS Sterling, VA

Current Version | Previous Version | Graphics & Text | Print | Product List | Glossary On
Versions: 1 2 3 4 5 6 7 8 9 10 11 12 13 14 15 16 17 18 19 20 21
726
FTUS41 KLWX 192056 AAA
TAFDCA
TAF AMD
KDCA 192056Z 1921/2018 19012KT 6SM -TSRA BKN040CB
     FM192200 32007KT P6SM VCTS BKN050CB
     FM200200 34004KT P6SM SCT050 BKN070
     FM200600 02009KT P6SM SCT050 BKN120
     FM201400 07009KT P6SM SCT020 BKN035=

USA.gov is the U.S. government's official web portal to all federal, state and local government web resources and services.